sensor_id;sensor_type;location;lat;lon;timestamp;P1;durP1;ratioP1;P2;durP2;ratioP2
3811;SDS011;1921;49.368;11.068;2023-02-21T00:02:33;45.90;;;42.30;;
3811;SDS011;1921;49.368;11.068;2023-02-21T00:05:17;45.40;;;41.80;;
3811;SDS011;1921;49.368;11.068;2023-02-21T00:08:01;47.77;;;43.70;;
3811;SDS011;1921;49.368;11.068;2023-02-21T00:10:45;46.17;;;41.90;;
3811;SDS011;1921;49.368;11.068;2023-02-21T00:13:30;46.00;;;41.97;;
3811;SDS011;1921;49.368;11.068;2023-02-21T00:16:17;45.63;;;41.93;;
3811;SDS011;1921;49.368;11.068;2023-02-21T00:19:02;45.17;;;41.57;;
3811;SDS011;1921;49.368;11.068;2023-02-21T00:21:47;46.23;;;42.30;;
3811;SDS011;1921;49.368;11.068;2023-02-21T00:24:31;45.37;;;41.87;;
3811;SDS011;1921;49.368;11.068;2023-02-21T00:27:15;45.87;;;42.20;;
3811;SDS011;1921;49.368;11.068;2023-02-21T00:29:59;46.70;;;42.60;;
3811;SDS011;1921;49.368;11.068;2023-02-21T00:32:44;46.80;;;43.00;;
3811;SDS011;1921;49.368;11.068;2023-02-21T00:35:28;45.57;;;41.97;;
3811;SDS011;1921;49.368;11.068;2023-02-21T00:38:12;47.20;;;42.40;;
3811;SDS011;1921;49.368;11.068;2023-02-21T00:40:57;46.33;;;42.63;;
3811;SDS011;1921;49.368;11.068;2023-02-21T00:43:41;47.47;;;42.90;;
3811;SDS011;1921;49.368;11.068;2023-02-21T00:46:25;46.27;;;42.20;;
3811;SDS011;1921;49.368;11.068;2023-02-21T00:49:10;46.77;;;42.90;;
3811;SDS011;1921;49.368;11.068;2023-02-21T00:51:54;46.40;;;42.40;;
3811;SDS011;1921;49.368;11.068;2023-02-21T00:54:38;45.40;;;41.80;;
3811;SDS011;1921;49.368;11.068;2023-02-21T00:57:23;45.50;;;41.77;;
3811;SDS011;1921;49.368;11.068;2023-02-21T01:00:08;46.33;;;42.53;;
3811;SDS011;1921;49.368;11.068;2023-02-21T01:03:01;46.47;;;42.67;;
3811;SDS011;1921;49.368;11.068;2023-02-21T01:05:46;46.30;;;42.60;;
3811;SDS011;1921;49.368;11.068;2023-02-21T01:08:30;46.77;;;42.60;;
3811;SDS011;1921;49.368;11.068;2023-02-21T01:11:15;46.27;;;42.50;;
3811;SDS011;1921;49.368;11.068;2023-02-21T01:14:02;46.33;;;42.43;;
3811;SDS011;1921;49.368;11.068;2023-02-21T01:16:46;46.20;;;42.07;;
3811;SDS011;1921;49.368;11.068;2023-02-21T01:19:32;46.00;;;42.40;;
3811;SDS011;1921;49.368;11.068;2023-02-21T01:22:16;46.23;;;42.53;;
3811;SDS011;1921;49.368;11.068;2023-02-21T01:25:00;45.40;;;41.70;;
3811;SDS011;1921;49.368;11.068;2023-02-21T01:27:44;45.37;;;41.80;;
3811;SDS011;1921;49.368;11.068;2023-02-21T01:30:29;45.13;;;41.63;;
3811;SDS011;1921;49.368;11.068;2023-02-21T01:33:13;47.07;;;43.17;;
3811;SDS011;1921;49.368;11.068;2023-02-21T01:35:57;45.70;;;42.00;;
3811;SDS011;1921;49.368;11.068;2023-02-21T01:38:41;45.43;;;42.00;;
3811;SDS011;1921;49.368;11.068;2023-02-21T01:41:25;45.90;;;42.17;;
3811;SDS011;1921;49.368;11.068;2023-02-21T01:44:30;46.37;;;42.67;;
3811;SDS011;1921;49.368;11.068;2023-02-21T01:47:26;45.20;;;41.77;;
3811;SDS011;1921;49.368;11.068;2023-02-21T01:50:22;46.10;;;42.50;;
3811;SDS011;1921;49.368;11.068;2023-02-21T01:53:19;45.57;;;41.97;;
3811;SDS011;1921;49.368;11.068;2023-02-21T01:56:07;45.47;;;42.10;;
3811;SDS011;1921;49.368;11.068;2023-02-21T01:58:53;46.00;;;42.20;;
3811;SDS011;1921;49.368;11.068;2023-02-21T02:01:45;45.90;;;42.40;;
3811;SDS011;1921;49.368;11.068;2023-02-21T02:04:46;47.53;;;43.13;;
3811;SDS011;1921;49.368;11.068;2023-02-21T02:07:32;44.87;;;41.67;;
3811;SDS011;1921;49.368;11.068;2023-02-21T02:10:17;45.77;;;42.17;;
3811;SDS011;1921;49.368;11.068;2023-02-21T02:16:01;46.20;;;41.97;;
3811;SDS011;1921;49.368;11.068;2023-02-21T02:18:57;50.83;;;42.90;;
3811;SDS011;1921;49.368;11.068;2023-02-21T02:24:57;45.37;;;41.77;;
3811;SDS011;1921;49.368;11.068;2023-02-21T02:27:40;45.67;;;42.33;;
3811;SDS011;1921;49.368;11.068;2023-02-21T02:30:15;45.67;;;42.10;;
3811;SDS011;1921;49.368;11.068;2023-02-21T02:36:26;45.90;;;42.40;;
3811;SDS011;1921;49.368;11.068;2023-02-21T02:39:16;46.30;;;42.50;;
3811;SDS011;1921;49.368;11.068;2023-02-21T02:42:10;45.57;;;41.77;;
3811;SDS011;1921;49.368;11.068;2023-02-21T02:47:49;46.03;;;42.50;;
3811;SDS011;1921;49.368;11.068;2023-02-21T02:50:26;53.43;;;41.27;;
3811;SDS011;1921;49.368;11.068;2023-02-21T02:52:54;45.90;;;42.40;;
3811;SDS011;1921;49.368;11.068;2023-02-21T02:58:12;45.40;;;42.10;;
3811;SDS011;1921;49.368;11.068;2023-02-21T03:00:39;45.30;;;41.90;;
3811;SDS011;1921;49.368;11.068;2023-02-21T03:05:55;43.60;;;40.60;;
3811;SDS011;1921;49.368;11.068;2023-02-21T03:08:46;45.93;;;42.20;;
3811;SDS011;1921;49.368;11.068;2023-02-21T03:11:40;44.40;;;40.90;;
3811;SDS011;1921;49.368;11.068;2023-02-21T03:14:28;45.10;;;41.10;;
3811;SDS011;1921;49.368;11.068;2023-02-21T03:17:10;45.90;;;42.30;;
3811;SDS011;1921;49.368;11.068;2023-02-21T03:19:41;44.23;;;41.13;;
3811;SDS011;1921;49.368;11.068;2023-02-21T03:22:12;44.80;;;41.50;;
3811;SDS011;1921;49.368;11.068;2023-02-21T03:24:50;44.37;;;41.17;;
3811;SDS011;1921;49.368;11.068;2023-02-21T03:27:18;47.13;;;42.27;;
3811;SDS011;1921;49.368;11.068;2023-02-21T03:29:46;44.10;;;40.83;;
3811;SDS011;1921;49.368;11.068;2023-02-21T03:32:17;44.77;;;41.47;;
3811;SDS011;1921;49.368;11.068;2023-02-21T03:34:53;45.13;;;41.83;;
3811;SDS011;1921;49.368;11.068;2023-02-21T03:37:21;44.17;;;41.07;;
3811;SDS011;1921;49.368;11.068;2023-02-21T03:40:09;46.90;;;42.00;;
3811;SDS011;1921;49.368;11.068;2023-02-21T03:42:47;44.10;;;40.90;;
3811;SDS011;1921;49.368;11.068;2023-02-21T03:45:14;44.73;;;41.50;;
3811;SDS011;1921;49.368;11.068;2023-02-21T03:47:40;44.67;;;41.20;;
3811;SDS011;1921;49.368;11.068;2023-02-21T03:50:06;44.40;;;41.20;;
3811;SDS011;1921;49.368;11.068;2023-02-21T03:52:32;44.93;;;41.53;;
3811;SDS011;1921;49.368;11.068;2023-02-21T03:54:58;44.90;;;41.70;;
3811;SDS011;1921;49.368;11.068;2023-02-21T03:57:24;45.63;;;41.63;;
3811;SDS011;1921;49.368;11.068;2023-02-21T03:59:50;44.73;;;41.10;;
3811;SDS011;1921;49.368;11.068;2023-02-21T04:02:16;45.27;;;41.90;;
3811;SDS011;1921;49.368;11.068;2023-02-21T04:04:43;44.43;;;41.20;;
3811;SDS011;1921;49.368;11.068;2023-02-21T04:07:09;45.20;;;41.93;;
3811;SDS011;1921;49.368;11.068;2023-02-21T04:09:35;44.67;;;41.17;;
3811;SDS011;1921;49.368;11.068;2023-02-21T04:12:02;45.30;;;41.80;;
3811;SDS011;1921;49.368;11.068;2023-02-21T04:14:29;45.17;;;41.53;;
3811;SDS011;1921;49.368;11.068;2023-02-21T04:16:54;46.43;;;42.77;;
3811;SDS011;1921;49.368;11.068;2023-02-21T04:19:20;45.47;;;41.67;;
3811;SDS011;1921;49.368;11.068;2023-02-21T04:21:46;45.47;;;41.97;;
3811;SDS011;1921;49.368;11.068;2023-02-21T04:24:12;46.43;;;42.50;;
3811;SDS011;1921;49.368;11.068;2023-02-21T04:26:38;45.53;;;42.03;;
3811;SDS011;1921;49.368;11.068;2023-02-21T04:29:04;45.33;;;41.83;;
3811;SDS011;1921;49.368;11.068;2023-02-21T04:31:30;46.90;;;42.97;;
3811;SDS011;1921;49.368;11.068;2023-02-21T04:33:57;46.00;;;42.03;;
3811;SDS011;1921;49.368;11.068;2023-02-21T04:36:23;45.13;;;41.63;;
3811;SDS011;1921;49.368;11.068;2023-02-21T04:38:50;48.67;;;43.13;;
3811;SDS011;1921;49.368;11.068;2023-02-21T04:41:16;45.87;;;42.07;;
3811;SDS011;1921;49.368;11.068;2023-02-21T04:43:43;47.60;;;43.37;;
3811;SDS011;1921;49.368;11.068;2023-02-21T04:46:10;49.20;;;44.27;;
3811;SDS011;1921;49.368;11.068;2023-02-21T04:48:44;46.83;;;43.00;;
3811;SDS011;1921;49.368;11.068;2023-02-21T04:51:13;47.27;;;43.20;;
3811;SDS011;1921;49.368;11.068;2023-02-21T04:53:41;46.70;;;42.83;;
3811;SDS011;1921;49.368;11.068;2023-02-21T04:56:08;46.83;;;42.83;;
3811;SDS011;1921;49.368;11.068;2023-02-21T04:58:36;47.37;;;43.37;;
3811;SDS011;1921;49.368;11.068;2023-02-21T05:01:02;47.60;;;43.60;;
3811;SDS011;1921;49.368;11.068;2023-02-21T05:03:29;47.47;;;43.50;;
3811;SDS011;1921;49.368;11.068;2023-02-21T05:05:54;47.33;;;43.30;;
3811;SDS011;1921;49.368;11.068;2023-02-21T05:08:20;47.47;;;43.57;;
3811;SDS011;1921;49.368;11.068;2023-02-21T05:10:47;47.07;;;43.03;;
3811;SDS011;1921;49.368;11.068;2023-02-21T05:13:14;46.50;;;42.70;;
3811;SDS011;1921;49.368;11.068;2023-02-21T05:15:40;46.70;;;42.90;;
3811;SDS011;1921;49.368;11.068;2023-02-21T05:18:06;46.87;;;42.67;;
3811;SDS011;1921;49.368;11.068;2023-02-21T05:20:32;47.23;;;43.27;;
3811;SDS011;1921;49.368;11.068;2023-02-21T05:22:58;47.63;;;43.43;;
3811;SDS011;1921;49.368;11.068;2023-02-21T05:25:24;47.07;;;42.87;;
3811;SDS011;1921;49.368;11.068;2023-02-21T05:27:50;46.93;;;42.93;;
3811;SDS011;1921;49.368;11.068;2023-02-21T05:30:19;47.50;;;43.40;;
3811;SDS011;1921;49.368;11.068;2023-02-21T05:32:47;47.60;;;43.20;;
3811;SDS011;1921;49.368;11.068;2023-02-21T05:35:14;47.53;;;43.23;;
3811;SDS011;1921;49.368;11.068;2023-02-21T05:37:41;47.73;;;43.63;;
3811;SDS011;1921;49.368;11.068;2023-02-21T05:40:09;47.70;;;43.60;;
3811;SDS011;1921;49.368;11.068;2023-02-21T05:42:36;48.03;;;43.67;;
3811;SDS011;1921;49.368;11.068;2023-02-21T05:45:02;47.47;;;43.10;;
3811;SDS011;1921;49.368;11.068;2023-02-21T05:47:32;47.80;;;43.60;;
3811;SDS011;1921;49.368;11.068;2023-02-21T05:49:59;47.60;;;43.40;;
3811;SDS011;1921;49.368;11.068;2023-02-21T05:52:25;49.63;;;44.80;;
3811;SDS011;1921;49.368;11.068;2023-02-21T05:54:51;48.57;;;44.37;;
3811;SDS011;1921;49.368;11.068;2023-02-21T05:57:18;48.67;;;44.17;;
3811;SDS011;1921;49.368;11.068;2023-02-21T05:59:44;48.67;;;44.47;;
3811;SDS011;1921;49.368;11.068;2023-02-21T06:02:12;48.00;;;43.70;;
3811;SDS011;1921;49.368;11.068;2023-02-21T06:04:39;48.07;;;43.63;;
3811;SDS011;1921;49.368;11.068;2023-02-21T06:07:04;48.20;;;43.80;;
3811;SDS011;1921;49.368;11.068;2023-02-21T06:09:30;48.77;;;44.37;;
3811;SDS011;1921;49.368;11.068;2023-02-21T06:11:56;47.80;;;43.70;;
3811;SDS011;1921;49.368;11.068;2023-02-21T06:14:22;48.97;;;44.40;;
3811;SDS011;1921;49.368;11.068;2023-02-21T06:16:49;48.13;;;44.10;;
3811;SDS011;1921;49.368;11.068;2023-02-21T06:19:15;48.80;;;44.43;;
3811;SDS011;1921;49.368;11.068;2023-02-21T06:21:42;49.63;;;44.50;;
3811;SDS011;1921;49.368;11.068;2023-02-21T06:24:09;49.03;;;44.63;;
3811;SDS011;1921;49.368;11.068;2023-02-21T06:26:35;48.40;;;44.13;;
3811;SDS011;1921;49.368;11.068;2023-02-21T06:29:03;48.40;;;44.30;;
3811;SDS011;1921;49.368;11.068;2023-02-21T06:31:29;48.30;;;43.97;;
3811;SDS011;1921;49.368;11.068;2023-02-21T06:33:55;48.00;;;43.70;;
3811;SDS011;1921;49.368;11.068;2023-02-21T06:36:22;48.20;;;44.07;;
3811;SDS011;1921;49.368;11.068;2023-02-21T06:38:51;47.60;;;43.40;;
3811;SDS011;1921;49.368;11.068;2023-02-21T06:41:20;47.23;;;43.23;;
3811;SDS011;1921;49.368;11.068;2023-02-21T06:43:50;48.70;;;44.37;;
3811;SDS011;1921;49.368;11.068;2023-02-21T06:46:18;47.87;;;43.40;;
3811;SDS011;1921;49.368;11.068;2023-02-21T06:48:46;47.90;;;43.80;;
3811;SDS011;1921;49.368;11.068;2023-02-21T06:51:12;48.67;;;44.17;;
3811;SDS011;1921;49.368;11.068;2023-02-21T06:53:42;47.50;;;43.50;;
3811;SDS011;1921;49.368;11.068;2023-02-21T06:56:09;48.10;;;43.90;;
3811;SDS011;1921;49.368;11.068;2023-02-21T06:58:36;48.67;;;44.20;;
3811;SDS011;1921;49.368;11.068;2023-02-21T07:01:02;48.63;;;44.33;;
3811;SDS011;1921;49.368;11.068;2023-02-21T07:03:28;48.57;;;44.20;;
3811;SDS011;1921;49.368;11.068;2023-02-21T07:05:53;49.83;;;44.80;;
3811;SDS011;1921;49.368;11.068;2023-02-21T07:08:19;50.13;;;45.47;;
3811;SDS011;1921;49.368;11.068;2023-02-21T07:10:45;53.70;;;44.60;;
3811;SDS011;1921;49.368;11.068;2023-02-21T07:13:11;49.87;;;45.20;;
3811;SDS011;1921;49.368;11.068;2023-02-21T07:15:37;49.60;;;45.00;;
3811;SDS011;1921;49.368;11.068;2023-02-21T07:18:03;48.67;;;44.27;;
3811;SDS011;1921;49.368;11.068;2023-02-21T07:20:29;49.63;;;45.00;;
3811;SDS011;1921;49.368;11.068;2023-02-21T07:22:57;50.50;;;45.37;;
3811;SDS011;1921;49.368;11.068;2023-02-21T07:25:23;49.27;;;44.60;;
3811;SDS011;1921;49.368;11.068;2023-02-21T07:27:49;49.40;;;44.80;;
3811;SDS011;1921;49.368;11.068;2023-02-21T07:30:17;50.87;;;46.00;;
3811;SDS011;1921;49.368;11.068;2023-02-21T07:32:43;53.13;;;45.40;;
3811;SDS011;1921;49.368;11.068;2023-02-21T07:35:09;50.13;;;44.93;;
3811;SDS011;1921;49.368;11.068;2023-02-21T07:37:35;50.23;;;45.33;;
3811;SDS011;1921;49.368;11.068;2023-02-21T07:40:01;50.30;;;45.30;;
3811;SDS011;1921;49.368;11.068;2023-02-21T07:42:28;49.47;;;44.67;;
3811;SDS011;1921;49.368;11.068;2023-02-21T07:44:54;50.27;;;45.57;;
3811;SDS011;1921;49.368;11.068;2023-02-21T07:47:21;54.77;;;46.50;;
3811;SDS011;1921;49.368;11.068;2023-02-21T07:49:48;50.17;;;45.17;;
3811;SDS011;1921;49.368;11.068;2023-02-21T07:52:14;50.20;;;45.30;;
3811;SDS011;1921;49.368;11.068;2023-02-21T07:54:40;50.30;;;45.50;;
3811;SDS011;1921;49.368;11.068;2023-02-21T07:57:06;51.50;;;46.20;;
3811;SDS011;1921;49.368;11.068;2023-02-21T07:59:32;51.53;;;46.40;;
3811;SDS011;1921;49.368;11.068;2023-02-21T08:01:57;51.27;;;45.90;;
3811;SDS011;1921;49.368;11.068;2023-02-21T08:04:23;51.40;;;46.37;;
3811;SDS011;1921;49.368;11.068;2023-02-21T08:06:49;51.70;;;46.50;;
3811;SDS011;1921;49.368;11.068;2023-02-21T08:09:15;50.93;;;45.90;;
3811;SDS011;1921;49.368;11.068;2023-02-21T08:11:41;51.07;;;46.03;;
3811;SDS011;1921;49.368;11.068;2023-02-21T08:14:07;51.37;;;46.40;;
3811;SDS011;1921;49.368;11.068;2023-02-21T08:16:33;52.00;;;46.83;;
3811;SDS011;1921;49.368;11.068;2023-02-21T08:18:58;51.00;;;46.00;;
3811;SDS011;1921;49.368;11.068;2023-02-21T08:21:24;51.70;;;46.67;;
3811;SDS011;1921;49.368;11.068;2023-02-21T08:23:53;49.73;;;44.90;;
3811;SDS011;1921;49.368;11.068;2023-02-21T08:26:20;50.97;;;45.93;;
3811;SDS011;1921;49.368;11.068;2023-02-21T08:28:46;50.67;;;45.83;;
3811;SDS011;1921;49.368;11.068;2023-02-21T08:31:12;49.70;;;45.00;;
3811;SDS011;1921;49.368;11.068;2023-02-21T08:33:38;50.90;;;46.10;;
3811;SDS011;1921;49.368;11.068;2023-02-21T08:36:04;51.20;;;46.20;;
3811;SDS011;1921;49.368;11.068;2023-02-21T08:38:30;52.10;;;46.70;;
3811;SDS011;1921;49.368;11.068;2023-02-21T08:40:56;52.17;;;46.77;;
3811;SDS011;1921;49.368;11.068;2023-02-21T08:43:23;52.87;;;47.23;;
3811;SDS011;1921;49.368;11.068;2023-02-21T08:45:49;52.57;;;47.13;;
3811;SDS011;1921;49.368;11.068;2023-02-21T08:48:15;52.07;;;46.67;;
3811;SDS011;1921;49.368;11.068;2023-02-21T08:50:41;52.93;;;47.37;;
3811;SDS011;1921;49.368;11.068;2023-02-21T08:53:08;53.97;;;48.27;;
3811;SDS011;1921;49.368;11.068;2023-02-21T08:55:37;56.43;;;48.10;;
3811;SDS011;1921;49.368;11.068;2023-02-21T08:58:03;54.23;;;48.43;;
3811;SDS011;1921;49.368;11.068;2023-02-21T09:00:29;54.53;;;48.13;;
3811;SDS011;1921;49.368;11.068;2023-02-21T09:02:55;53.90;;;48.13;;
3811;SDS011;1921;49.368;11.068;2023-02-21T09:05:24;55.10;;;48.63;;
3811;SDS011;1921;49.368;11.068;2023-02-21T09:07:54;54.67;;;48.50;;
3811;SDS011;1921;49.368;11.068;2023-02-21T09:10:24;55.30;;;48.80;;
3811;SDS011;1921;49.368;11.068;2023-02-21T09:12:51;54.93;;;48.93;;
3811;SDS011;1921;49.368;11.068;2023-02-21T09:15:17;57.70;;;49.23;;
3811;SDS011;1921;49.368;11.068;2023-02-21T09:17:43;56.00;;;49.90;;
3811;SDS011;1921;49.368;11.068;2023-02-21T09:20:10;58.10;;;49.20;;
3811;SDS011;1921;49.368;11.068;2023-02-21T09:22:45;55.80;;;49.80;;
3811;SDS011;1921;49.368;11.068;2023-02-21T09:25:11;55.60;;;49.30;;
3811;SDS011;1921;49.368;11.068;2023-02-21T09:27:40;56.83;;;49.33;;
3811;SDS011;1921;49.368;11.068;2023-02-21T09:30:11;62.23;;;49.83;;
3811;SDS011;1921;49.368;11.068;2023-02-21T09:32:41;58.03;;;50.03;;
3811;SDS011;1921;49.368;11.068;2023-02-21T09:35:08;57.93;;;50.13;;
3811;SDS011;1921;49.368;11.068;2023-02-21T09:37:38;59.70;;;50.40;;
3811;SDS011;1921;49.368;11.068;2023-02-21T09:40:14;59.17;;;49.53;;
3811;SDS011;1921;49.368;11.068;2023-02-21T09:43:07;56.80;;;49.33;;
3811;SDS011;1921;49.368;11.068;2023-02-21T09:45:43;56.17;;;49.20;;
3811;SDS011;1921;49.368;11.068;2023-02-21T09:48:13;54.70;;;48.70;;
3811;SDS011;1921;49.368;11.068;2023-02-21T09:50:47;55.10;;;49.10;;
3811;SDS011;1921;49.368;11.068;2023-02-21T09:53:30;56.57;;;49.00;;
3811;SDS011;1921;49.368;11.068;2023-02-21T09:56:20;55.00;;;49.00;;
3811;SDS011;1921;49.368;11.068;2023-02-21T09:58:58;53.77;;;48.03;;
3811;SDS011;1921;49.368;11.068;2023-02-21T10:01:31;54.43;;;48.60;;
3811;SDS011;1921;49.368;11.068;2023-02-21T10:10:16;53.60;;;47.90;;
3811;SDS011;1921;49.368;11.068;2023-02-21T10:16:03;54.83;;;48.83;;
3811;SDS011;1921;49.368;11.068;2023-02-21T10:18:48;53.67;;;47.97;;
3811;SDS011;1921;49.368;11.068;2023-02-21T10:21:36;53.60;;;47.80;;
3811;SDS011;1921;49.368;11.068;2023-02-21T10:24:15;53.20;;;47.50;;
3811;SDS011;1921;49.368;11.068;2023-02-21T10:26:47;55.40;;;49.40;;
3811;SDS011;1921;49.368;11.068;2023-02-21T10:29:51;53.93;;;48.23;;
3811;SDS011;1921;49.368;11.068;2023-02-21T10:32:21;53.43;;;47.73;;
3811;SDS011;1921;49.368;11.068;2023-02-21T10:34:48;57.30;;;48.10;;
3811;SDS011;1921;49.368;11.068;2023-02-21T10:39:48;53.43;;;47.73;;
3811;SDS011;1921;49.368;11.068;2023-02-21T10:42:30;53.27;;;47.47;;
3811;SDS011;1921;49.368;11.068;2023-02-21T10:45:07;54.20;;;48.30;;
3811;SDS011;1921;49.368;11.068;2023-02-21T10:47:44;54.77;;;48.57;;
3811;SDS011;1921;49.368;11.068;2023-02-21T10:50:40;53.40;;;47.70;;
3811;SDS011;1921;49.368;11.068;2023-02-21T10:53:08;53.63;;;47.83;;
3811;SDS011;1921;49.368;11.068;2023-02-21T10:58:47;54.00;;;48.20;;
3811;SDS011;1921;49.368;11.068;2023-02-21T11:04:04;52.87;;;47.27;;
3811;SDS011;1921;49.368;11.068;2023-02-21T11:09:42;52.97;;;47.37;;
3811;SDS011;1921;49.368;11.068;2023-02-21T11:12:26;52.50;;;46.97;;
3811;SDS011;1921;49.368;11.068;2023-02-21T11:17:25;53.33;;;47.70;;
3811;SDS011;1921;49.368;11.068;2023-02-21T11:19:56;53.30;;;47.60;;
3811;SDS011;1921;49.368;11.068;2023-02-21T11:22:36;53.77;;;48.07;;
3811;SDS011;1921;49.368;11.068;2023-02-21T11:30:35;53.93;;;48.03;;
3811;SDS011;1921;49.368;11.068;2023-02-21T11:33:12;53.53;;;47.73;;
3811;SDS011;1921;49.368;11.068;2023-02-21T11:35:46;54.40;;;48.50;;
3811;SDS011;1921;49.368;11.068;2023-02-21T11:38:35;54.37;;;48.43;;
3811;SDS011;1921;49.368;11.068;2023-02-21T11:41:34;54.20;;;48.30;;
3811;SDS011;1921;49.368;11.068;2023-02-21T11:52:38;53.87;;;47.97;;
3811;SDS011;1921;49.368;11.068;2023-02-21T11:55:11;53.57;;;47.83;;
3811;SDS011;1921;49.368;11.068;2023-02-21T12:00:42;53.77;;;47.93;;
3811;SDS011;1921;49.368;11.068;2023-02-21T12:06:34;54.10;;;48.30;;
3811;SDS011;1921;49.368;11.068;2023-02-21T12:09:43;53.80;;;48.03;;
3811;SDS011;1921;49.368;11.068;2023-02-21T12:12:22;53.90;;;48.10;;
3811;SDS011;1921;49.368;11.068;2023-02-21T12:18:38;53.30;;;47.60;;
3811;SDS011;1921;49.368;11.068;2023-02-21T12:33:54;53.43;;;47.70;;
3811;SDS011;1921;49.368;11.068;2023-02-21T12:50:30;54.00;;;48.10;;
3811;SDS011;1921;49.368;11.068;2023-02-21T12:55:59;55.70;;;47.97;;
3811;SDS011;1921;49.368;11.068;2023-02-21T12:58:34;54.00;;;48.10;;
3811;SDS011;1921;49.368;11.068;2023-02-21T13:01:27;53.57;;;47.80;;
3811;SDS011;1921;49.368;11.068;2023-02-21T13:07:14;54.00;;;48.20;;
3811;SDS011;1921;49.368;11.068;2023-02-21T13:09:59;54.77;;;48.80;;
3811;SDS011;1921;49.368;11.068;2023-02-21T13:12:49;56.10;;;49.23;;
3811;SDS011;1921;49.368;11.068;2023-02-21T13:15:34;55.47;;;49.00;;
3811;SDS011;1921;49.368;11.068;2023-02-21T13:18:05;56.60;;;49.17;;
3811;SDS011;1921;49.368;11.068;2023-02-21T13:21:08;56.30;;;48.70;;
3811;SDS011;1921;49.368;11.068;2023-02-21T13:23:56;54.73;;;48.73;;
3811;SDS011;1921;49.368;11.068;2023-02-21T13:29:25;54.80;;;48.80;;
3811;SDS011;1921;49.368;11.068;2023-02-21T13:35:05;53.80;;;48.00;;
3811;SDS011;1921;49.368;11.068;2023-02-21T13:37:33;54.27;;;48.37;;
3811;SDS011;1921;49.368;11.068;2023-02-21T13:41:09;53.47;;;47.77;;
3811;SDS011;1921;49.368;11.068;2023-02-21T13:43:28;53.73;;;48.00;;
3811;SDS011;1921;49.368;11.068;2023-02-21T13:46:21;53.23;;;47.50;;
3811;SDS011;1921;49.368;11.068;2023-02-21T13:57:37;52.37;;;46.87;;
3811;SDS011;1921;49.368;11.068;2023-02-21T14:00:44;52.77;;;47.17;;
3811;SDS011;1921;49.368;11.068;2023-02-21T14:13:40;54.60;;;48.60;;
3811;SDS011;1921;49.368;11.068;2023-02-21T14:18:55;54.10;;;48.20;;
3811;SDS011;1921;49.368;11.068;2023-02-21T14:43:05;57.37;;;49.57;;
3811;SDS011;1921;49.368;11.068;2023-02-21T14:45:59;57.30;;;49.37;;
3811;SDS011;1921;49.368;11.068;2023-02-21T14:54:23;56.93;;;49.23;;
3811;SDS011;1921;49.368;11.068;2023-02-21T14:57:31;58.17;;;49.63;;
3811;SDS011;1921;49.368;11.068;2023-02-21T15:06:29;59.07;;;50.20;;
3811;SDS011;1921;49.368;11.068;2023-02-21T15:08:57;59.10;;;50.20;;
3811;SDS011;1921;49.368;11.068;2023-02-21T15:11:35;58.33;;;50.13;;
3811;SDS011;1921;49.368;11.068;2023-02-21T15:14:19;64.63;;;49.90;;
3811;SDS011;1921;49.368;11.068;2023-02-21T15:16:57;56.17;;;49.37;;
3811;SDS011;1921;49.368;11.068;2023-02-21T15:19:34;56.10;;;49.30;;
3811;SDS011;1921;49.368;11.068;2023-02-21T15:22:12;56.40;;;49.23;;
3811;SDS011;1921;49.368;11.068;2023-02-21T15:25:22;57.37;;;49.57;;
3811;SDS011;1921;49.368;11.068;2023-02-21T15:30:24;57.03;;;49.60;;
3811;SDS011;1921;49.368;11.068;2023-02-21T15:33:16;58.40;;;49.67;;
3811;SDS011;1921;49.368;11.068;2023-02-21T15:35:45;56.90;;;49.30;;
3811;SDS011;1921;49.368;11.068;2023-02-21T15:41:15;56.43;;;49.27;;
3811;SDS011;1921;49.368;11.068;2023-02-21T15:43:54;57.27;;;50.03;;
3811;SDS011;1921;49.368;11.068;2023-02-21T15:46:42;55.13;;;48.83;;
3811;SDS011;1921;49.368;11.068;2023-02-21T15:49:20;54.50;;;48.60;;
3811;SDS011;1921;49.368;11.068;2023-02-21T15:51:56;54.27;;;48.30;;
3811;SDS011;1921;49.368;11.068;2023-02-21T15:59:55;52.90;;;47.30;;
3811;SDS011;1921;49.368;11.068;2023-02-21T16:02:40;52.40;;;46.90;;
3811;SDS011;1921;49.368;11.068;2023-02-21T16:05:21;52.70;;;47.20;;
3811;SDS011;1921;49.368;11.068;2023-02-21T16:08:01;52.57;;;47.07;;
3811;SDS011;1921;49.368;11.068;2023-02-21T16:10:28;51.93;;;46.53;;
3811;SDS011;1921;49.368;11.068;2023-02-21T16:12:56;51.80;;;46.47;;
3811;SDS011;1921;49.368;11.068;2023-02-21T16:15:28;51.70;;;46.40;;
3811;SDS011;1921;49.368;11.068;2023-02-21T16:17:58;51.37;;;46.10;;
3811;SDS011;1921;49.368;11.068;2023-02-21T16:23:24;50.90;;;45.70;;
3811;SDS011;1921;49.368;11.068;2023-02-21T16:28:51;50.57;;;45.47;;
3811;SDS011;1921;49.368;11.068;2023-02-21T16:31:23;50.60;;;45.50;;
3811;SDS011;1921;49.368;11.068;2023-02-21T16:33:51;50.50;;;45.43;;
3811;SDS011;1921;49.368;11.068;2023-02-21T16:36:24;50.43;;;45.33;;
3811;SDS011;1921;49.368;11.068;2023-02-21T16:38:56;50.70;;;45.50;;
3811;SDS011;1921;49.368;11.068;2023-02-21T16:41:23;50.40;;;45.40;;
3811;SDS011;1921;49.368;11.068;2023-02-21T16:43:49;49.77;;;44.87;;
3811;SDS011;1921;49.368;11.068;2023-02-21T16:46:21;49.87;;;44.97;;
3811;SDS011;1921;49.368;11.068;2023-02-21T16:48:51;50.33;;;45.27;;
3811;SDS011;1921;49.368;11.068;2023-02-21T16:51:18;49.87;;;44.97;;
3811;SDS011;1921;49.368;11.068;2023-02-21T16:53:44;49.90;;;45.00;;
3811;SDS011;1921;49.368;11.068;2023-02-21T16:56:11;49.83;;;45.00;;
3811;SDS011;1921;49.368;11.068;2023-02-21T16:58:39;50.10;;;45.10;;
3811;SDS011;1921;49.368;11.068;2023-02-21T17:01:28;49.67;;;44.87;;
3811;SDS011;1921;49.368;11.068;2023-02-21T17:03:56;49.40;;;44.70;;
3811;SDS011;1921;49.368;11.068;2023-02-21T17:06:23;49.40;;;44.70;;
3811;SDS011;1921;49.368;11.068;2023-02-21T17:08:51;49.60;;;44.80;;
3811;SDS011;1921;49.368;11.068;2023-02-21T17:11:17;49.13;;;44.43;;
3811;SDS011;1921;49.368;11.068;2023-02-21T17:13:43;49.20;;;44.50;;
3811;SDS011;1921;49.368;11.068;2023-02-21T17:16:09;49.43;;;44.60;;
3811;SDS011;1921;49.368;11.068;2023-02-21T17:18:35;49.53;;;44.73;;
3811;SDS011;1921;49.368;11.068;2023-02-21T17:21:00;49.20;;;44.40;;
3811;SDS011;1921;49.368;11.068;2023-02-21T17:23:26;49.80;;;45.10;;
3811;SDS011;1921;49.368;11.068;2023-02-21T17:25:52;50.20;;;44.80;;
3811;SDS011;1921;49.368;11.068;2023-02-21T17:28:18;48.80;;;44.20;;
3811;SDS011;1921;49.368;11.068;2023-02-21T17:30:44;48.93;;;44.33;;
3811;SDS011;1921;49.368;11.068;2023-02-21T17:33:11;48.47;;;43.97;;
3811;SDS011;1921;49.368;11.068;2023-02-21T17:35:37;48.60;;;44.03;;
3811;SDS011;1921;49.368;11.068;2023-02-21T17:38:04;49.33;;;44.60;;
3811;SDS011;1921;49.368;11.068;2023-02-21T17:40:29;48.60;;;44.10;;
3811;SDS011;1921;49.368;11.068;2023-02-21T17:42:55;49.07;;;44.33;;
3811;SDS011;1921;49.368;11.068;2023-02-21T17:45:21;48.70;;;44.20;;
3811;SDS011;1921;49.368;11.068;2023-02-21T17:47:49;48.70;;;44.20;;
3811;SDS011;1921;49.368;11.068;2023-02-21T17:50:16;49.53;;;44.83;;
3811;SDS011;1921;49.368;11.068;2023-02-21T17:52:43;49.77;;;45.07;;
3811;SDS011;1921;49.368;11.068;2023-02-21T17:55:10;48.50;;;44.00;;
3811;SDS011;1921;49.368;11.068;2023-02-21T17:57:46;49.20;;;44.70;;
3811;SDS011;1921;49.368;11.068;2023-02-21T18:00:23;48.63;;;44.17;;
3811;SDS011;1921;49.368;11.068;2023-02-21T18:02:51;51.43;;;46.53;;
3811;SDS011;1921;49.368;11.068;2023-02-21T18:05:19;50.50;;;45.57;;
3811;SDS011;1921;49.368;11.068;2023-02-21T18:07:46;54.17;;;48.47;;
3811;SDS011;1921;49.368;11.068;2023-02-21T18:10:15;52.03;;;47.00;;